createdAt,value
2023-01-09T00:00:35.711Z,49.35
2023-01-09T00:03:24.305Z,50.17
2023-01-09T00:05:53.138Z,50.67
2023-01-09T00:08:21.774Z,52.47
2023-01-09T00:10:50.726Z,50.53
2023-01-09T00:13:19.393Z,50.55
2023-01-09T00:15:49.089Z,51.80
2023-01-09T00:18:18.113Z,48.25
2023-01-09T00:20:46.351Z,52.70
2023-01-09T00:23:14.981Z,49.88
2023-01-09T00:25:43.229Z,51.00
2023-01-09T00:28:12.505Z,50.38
2023-01-09T00:31:06.600Z,52.05
2023-01-09T00:33:39.526Z,51.85
2023-01-09T00:36:08.203Z,56.45
2023-01-09T00:39:01.924Z,53.50
2023-01-09T00:41:46.200Z,54.08
2023-01-09T00:44:26.471Z,58.47
2023-01-09T00:47:20.110Z,54.03
2023-01-09T00:50:22.271Z,55.42
2023-01-09T00:53:12.724Z,53.08
2023-01-09T00:55:41.673Z,53.05
2023-01-09T00:58:19.973Z,52.15
2023-01-09T01:00:48.766Z,55.13
2023-01-09T01:03:17.291Z,52.17
2023-01-09T01:06:32.593Z,53.40
2023-01-09T01:09:00.908Z,53.35
2023-01-09T01:11:29.739Z,51.75
2023-01-09T01:14:23.026Z,56.17
2023-01-09T01:16:51.814Z,54.63
2023-01-09T01:19:20.037Z,55.28
2023-01-09T01:21:48.549Z,50.85
2023-01-09T01:24:19.921Z,55.28
2023-01-09T01:26:48.627Z,53.17
2023-01-09T01:29:16.985Z,55.47
2023-01-09T01:32:13.291Z,54.85
2023-01-09T01:34:41.777Z,54.10
2023-01-09T01:37:14.261Z,55.35
2023-01-09T01:40:09.985Z,52.75
2023-01-09T01:42:49.404Z,50.53
2023-01-09T01:45:20.315Z,48.70
2023-01-09T01:47:58.494Z,47.28
2023-01-09T01:51:00.396Z,53.45
2023-01-09T01:53:33.596Z,56.42
2023-01-09T01:57:02.243Z,50.58
2023-01-09T01:59:40.346Z,52.03
2023-01-09T02:02:10.296Z,52.53
2023-01-09T02:04:42.915Z,56.10
2023-01-09T02:07:11.633Z,52.90
2023-01-09T02:09:42.288Z,52.05
2023-01-09T02:12:26.223Z,52.40
2023-01-09T02:15:05.141Z,71.82
2023-01-09T02:18:00.672Z,55.35
2023-01-09T02:20:55.142Z,46.83
2023-01-09T02:23:29.531Z,52.67
2023-01-09T02:26:24.130Z,53.75
2023-01-09T02:29:24.952Z,50.38
2023-01-09T02:32:22.694Z,50.50
2023-01-09T02:34:56.721Z,49.40
2023-01-09T02:37:53.156Z,49.47
2023-01-09T02:40:28.061Z,52.00
2023-01-09T02:42:59.594Z,51.90
2023-01-09T02:45:28.172Z,50.63
2023-01-09T02:47:56.909Z,48.05
2023-01-09T02:50:35.829Z,52.15
2023-01-09T02:53:56.950Z,51.80
2023-01-09T02:56:54.421Z,49.38
2023-01-09T02:59:33.969Z,46.63
2023-01-09T03:02:35.697Z,47.25
2023-01-09T03:05:35.340Z,45.75
2023-01-09T03:08:31.913Z,51.17
2023-01-09T03:11:06.792Z,49.10
2023-01-09T03:13:42.201Z,49.88
2023-01-09T03:16:13.853Z,47.55
2023-01-09T03:21:11.935Z,54.63
2023-01-09T03:23:49.799Z,49.58
2023-01-09T03:26:18.711Z,50.97
2023-01-09T03:28:47.781Z,51.03
2023-01-09T03:31:16.015Z,53.88
2023-01-09T03:33:45.046Z,46.67
2023-01-09T03:36:14.722Z,47.25
2023-01-09T03:38:43.542Z,50.67
2023-01-09T03:41:23.013Z,50.65
2023-01-09T03:43:51.666Z,47.78
2023-01-09T03:46:22.754Z,50.97
2023-01-09T03:49:00.105Z,47.40
2023-01-09T03:51:28.315Z,52.85
2023-01-09T03:54:03.253Z,48.60
2023-01-09T03:56:41.620Z,50.40
2023-01-09T03:59:13.212Z,48.42
2023-01-09T04:01:41.623Z,50.25
2023-01-09T04:04:10.407Z,51.13
2023-01-09T04:06:38.670Z,51.78
2023-01-09T04:09:07.401Z,48.42
2023-01-09T04:11:35.663Z,48.42
2023-01-09T04:14:04.306Z,50.17
2023-01-09T04:16:39.160Z,48.10
2023-01-09T04:19:31.289Z,55.17
2023-01-09T04:22:03.091Z,55.67
2023-01-09T04:24:39.767Z,53.15
2023-01-09T04:27:10.589Z,54.83
2023-01-09T04:29:43.133Z,53.80
2023-01-09T04:32:11.410Z,52.45
2023-01-09T04:34:51.299Z,53.80
2023-01-09T04:37:19.899Z,57.10
2023-01-09T04:39:54.980Z,51.92
2023-01-09T04:42:24.116Z,59.28
2023-01-09T04:44:54.208Z,58.85
2023-01-09T04:48:00.769Z,58.53
2023-01-09T04:55:26.442Z,59.92
2023-01-09T04:57:55.096Z,56.47
2023-01-09T05:00:25.906Z,61.80
2023-01-09T05:02:54.626Z,71.03
2023-01-09T05:05:46.775Z,80.00
2023-01-09T05:08:19.472Z,75.07
2023-01-09T05:10:47.951Z,62.88
2023-01-09T05:13:16.586Z,62.97
2023-01-09T05:15:44.979Z,62.38
2023-01-09T05:18:13.546Z,61.33
2023-01-09T05:20:41.830Z,63.35
2023-01-09T05:23:10.461Z,63.78
2023-01-09T05:25:38.667Z,60.70
2023-01-09T05:28:07.206Z,56.00
2023-01-09T05:30:35.535Z,59.30
2023-01-09T05:33:04.138Z,60.05
2023-01-09T05:35:32.489Z,57.70
2023-01-09T05:38:01.327Z,64.18
2023-01-09T05:40:39.466Z,58.30
2023-01-09T05:43:08.919Z,68.13
2023-01-09T05:45:37.300Z,60.90
2023-01-09T05:48:06.136Z,59.25
2023-01-09T05:50:34.482Z,62.85
2023-01-09T05:53:03.288Z,62.50
2023-01-09T05:55:31.752Z,62.08
2023-01-09T05:58:00.746Z,63.17
2023-01-09T06:00:29.196Z,70.82
2023-01-09T06:02:58.151Z,70.05
2023-01-09T06:05:26.725Z,74.35
2023-01-09T06:07:55.292Z,67.22
2023-01-09T06:10:23.532Z,73.05
2023-01-09T06:12:52.641Z,69.60
2023-01-09T06:15:20.910Z,74.53
2023-01-09T06:17:49.706Z,75.18
2023-01-09T06:20:18.581Z,76.15
2023-01-09T06:22:47.419Z,73.47
2023-01-09T06:25:15.774Z,70.93
2023-01-09T06:27:44.360Z,72.25
2023-01-09T06:30:12.942Z,67.20
2023-01-09T06:32:41.539Z,70.20
2023-01-09T06:35:10.241Z,68.50
2023-01-09T06:37:38.919Z,63.55
2023-01-09T06:40:07.706Z,61.90
2023-01-09T06:42:36.380Z,64.95
2023-01-09T06:45:05.366Z,63.20
2023-01-09T06:47:34.448Z,63.67
2023-01-09T06:50:02.687Z,65.25
2023-01-09T06:52:32.577Z,61.63
2023-01-09T06:55:00.858Z,66.68
2023-01-09T06:57:29.833Z,70.03
2023-01-09T06:59:58.196Z,80.47
2023-01-09T07:02:26.828Z,82.63
2023-01-09T07:04:55.205Z,79.25
2023-01-09T07:07:24.166Z,82.43
2023-01-09T07:09:52.415Z,79.30
2023-01-09T07:12:21.074Z,75.78
2023-01-09T07:14:49.522Z,68.15
2023-01-09T07:17:18.015Z,70.75
2023-01-09T07:19:46.332Z,68.05
2023-01-09T07:22:15.124Z,67.05
2023-01-09T07:24:44.781Z,70.45
2023-01-09T07:27:13.358Z,68.45
2023-01-09T07:29:41.642Z,66.25
2023-01-09T07:32:10.412Z,69.63
2023-01-09T07:34:38.678Z,66.90
2023-01-09T07:37:08.010Z,70.65
2023-01-09T07:39:36.389Z,74.55
2023-01-09T07:42:04.960Z,71.60
2023-01-09T07:44:33.843Z,83.25
2023-01-09T07:47:02.444Z,74.28
2023-01-09T07:49:30.763Z,73.75
2023-01-09T07:51:59.382Z,74.45
2023-01-09T07:54:27.690Z,73.75
2023-01-09T07:56:56.344Z,73.40
2023-01-09T07:59:25.057Z,71.22
2023-01-09T08:01:53.940Z,76.05
2023-01-09T08:04:22.816Z,92.30
2023-01-09T08:06:51.331Z,79.70
2023-01-09T08:09:20.181Z,79.80
2023-01-09T08:11:48.729Z,67.80
2023-01-09T08:14:17.455Z,72.95
2023-01-09T08:16:45.922Z,74.15
2023-01-09T08:19:14.472Z,74.05
2023-01-09T08:21:42.697Z,74.32
2023-01-09T08:24:11.383Z,72.82
2023-01-09T08:26:39.609Z,80.93
2023-01-09T08:29:08.323Z,86.28
2023-01-09T08:31:37.006Z,76.55
2023-01-09T08:34:05.830Z,79.60
2023-01-09T08:36:41.612Z,78.07
2023-01-09T08:39:13.700Z,81.95
2023-01-09T08:42:08.196Z,80.72
2023-01-09T08:44:55.703Z,69.07
2023-01-09T08:47:24.910Z,72.82
2023-01-09T08:49:53.532Z,76.20
2023-01-09T08:52:21.784Z,81.85
2023-01-09T08:54:50.458Z,84.45
2023-01-09T08:57:18.782Z,83.22
2023-01-09T08:59:47.578Z,85.38
2023-01-09T09:02:15.921Z,82.03
2023-01-09T09:04:44.945Z,85.95
2023-01-09T09:07:14.039Z,76.70
2023-01-09T09:09:42.695Z,74.50
2023-01-09T09:12:10.957Z,73.70
2023-01-09T09:14:58.009Z,85.10
2023-01-09T09:17:26.968Z,86.28
2023-01-09T09:19:55.590Z,85.00
2023-01-09T09:22:24.052Z,89.80
2023-01-09T09:24:52.604Z,78.75
2023-01-09T09:27:20.960Z,80.68
2023-01-09T09:29:49.675Z,86.95
2023-01-09T09:32:17.967Z,85.25
2023-01-09T09:34:46.636Z,74.35
2023-01-09T09:37:15.082Z,72.57
2023-01-09T09:39:43.645Z,74.25
2023-01-09T09:42:44.838Z,75.07
2023-01-09T09:45:25.770Z,72.57
2023-01-09T09:48:18.212Z,71.38
2023-01-09T09:51:16.534Z,66.65
2023-01-09T09:54:15.228Z,66.10
2023-01-09T09:56:51.652Z,73.50
2023-01-09T09:59:35.651Z,73.97
2023-01-09T10:02:10.248Z,73.72
2023-01-09T10:04:47.189Z,69.85
2023-01-09T10:07:23.822Z,64.70
2023-01-09T10:10:05.246Z,67.82
2023-01-09T10:12:46.455Z,65.55
2023-01-09T10:15:38.728Z,64.97
2023-01-09T10:18:16.452Z,66.03
2023-01-09T10:21:02.236Z,64.38
2023-01-09T10:24:00.241Z,63.35
2023-01-09T10:26:37.489Z,64.70
2023-01-09T10:29:39.036Z,70.93
2023-01-09T10:32:44.727Z,74.03
2023-01-09T10:35:39.407Z,76.85
2023-01-09T10:38:23.227Z,72.88
2023-01-09T10:41:16.143Z,68.47
2023-01-09T10:43:52.807Z,69.15
2023-01-09T10:46:29.677Z,67.63
2023-01-09T10:49:05.364Z,63.47
2023-01-09T10:51:47.931Z,67.20
2023-01-09T10:54:20.264Z,63.97
2023-01-09T10:57:19.837Z,78.63
2023-01-09T10:59:48.181Z,69.72
2023-01-09T11:02:36.188Z,67.25
2023-01-09T11:05:05.109Z,74.00
2023-01-09T11:07:37.992Z,75.68
2023-01-09T11:13:49.368Z,74.20
2023-01-09T11:20:29.532Z,67.82
2023-01-09T11:22:59.433Z,72.55
2023-01-09T11:25:29.298Z,73.55
2023-01-09T11:28:07.405Z,77.55
2023-01-09T11:30:59.958Z,76.72
2023-01-09T11:33:38.078Z,74.57
2023-01-09T11:36:15.997Z,80.32
2023-01-09T11:39:24.015Z,75.85
2023-01-09T11:41:57.982Z,79.60
2023-01-09T11:46:56.417Z,82.15
2023-01-09T11:49:31.975Z,79.22
2023-01-09T11:52:29.289Z,91.70
2023-01-09T11:55:14.163Z,82.88
2023-01-09T12:01:27.419Z,88.72
2023-01-09T12:04:28.669Z,78.85
2023-01-09T12:07:25.178Z,84.75
2023-01-09T12:10:10.184Z,88.07
2023-01-09T12:13:07.221Z,86.28
2023-01-09T12:15:54.806Z,105.80
2023-01-09T12:18:49.718Z,98.65
2023-01-09T12:22:01.982Z,90.72
2023-01-09T12:24:42.271Z,87.75
2023-01-09T12:27:35.126Z,92.90
2023-01-09T12:30:26.279Z,90.35
2023-01-09T12:33:15.418Z,92.70
2023-01-09T12:36:07.799Z,91.20
2023-01-09T12:38:52.786Z,97.25
2023-01-09T12:41:28.019Z,97.95
2023-01-09T12:44:02.783Z,88.05
2023-01-09T12:46:45.135Z,92.65
2023-01-09T12:49:42.400Z,92.80
2023-01-09T12:52:20.614Z,94.15
2023-01-09T12:55:28.015Z,93.35
2023-01-09T12:58:00.582Z,89.13
2023-01-09T13:00:51.603Z,106.35
2023-01-09T13:03:37.337Z,104.93
2023-01-09T13:06:13.406Z,103.95
2023-01-09T13:08:49.895Z,106.63
2023-01-09T13:11:32.307Z,117.13
2023-01-09T13:14:38.918Z,89.43
2023-01-09T13:17:18.632Z,94.10
2023-01-09T13:19:46.920Z,83.28
2023-01-09T13:22:16.301Z,81.97
2023-01-09T13:25:12.175Z,76.32
2023-01-09T13:27:46.955Z,84.53
2023-01-09T13:30:45.205Z,81.47
2023-01-09T13:33:21.837Z,85.78
2023-01-09T13:35:53.238Z,93.28
2023-01-09T13:38:27.672Z,98.88
2023-01-09T13:41:36.040Z,95.20
2023-01-09T13:44:17.829Z,97.38
2023-01-09T13:46:49.088Z,105.10
2023-01-09T13:49:36.594Z,108.35
2023-01-09T13:52:07.007Z,103.10
2023-01-09T13:54:58.308Z,107.63
2023-01-09T13:57:32.783Z,104.30
2023-01-09T14:00:14.687Z,98.00
2023-01-09T14:02:49.911Z,98.60
2023-01-09T14:05:24.894Z,100.53
2023-01-09T14:08:03.041Z,105.07
2023-01-09T14:10:37.776Z,99.05
2023-01-09T14:13:16.497Z,93.80
2023-01-09T14:15:47.170Z,89.53
2023-01-09T14:18:18.788Z,98.28
2023-01-09T14:20:57.919Z,89.15
2023-01-09T14:23:52.122Z,92.15
2023-01-09T14:26:25.275Z,95.47
2023-01-09T14:29:33.850Z,109.72
2023-01-09T14:32:21.374Z,103.10
2023-01-09T14:34:57.730Z,99.82
2023-01-09T14:42:09.414Z,95.05
2023-01-09T14:48:30.260Z,101.93
2023-01-09T14:50:59.989Z,96.18
2023-01-09T14:53:37.156Z,99.55
2023-01-09T14:56:08.696Z,133.35
2023-01-09T14:58:37.650Z,148.65
2023-01-09T15:01:27.271Z,161.95
2023-01-09T15:04:04.490Z,155.20
2023-01-09T15:06:47.297Z,143.68
2023-01-09T15:12:06.548Z,196.52
2023-01-09T15:14:40.870Z,237.73
2023-01-09T15:17:27.556Z,199.38
2023-01-09T15:19:59.442Z,170.27
2023-01-09T15:22:36.411Z,156.73
2023-01-09T15:25:33.944Z,166.88
2023-01-09T15:28:27.886Z,168.75
2023-01-09T15:31:19.371Z,152.40
2023-01-09T15:33:48.826Z,153.60
2023-01-09T15:36:21.257Z,148.90
2023-01-09T15:39:00.288Z,162.25
2023-01-09T15:41:49.330Z,159.70
2023-01-09T15:44:30.352Z,133.48
2023-01-09T15:47:00.694Z,101.80
2023-01-09T15:49:29.615Z,100.20
2023-01-09T15:52:01.534Z,103.85
2023-01-09T15:54:32.773Z,96.72
2023-01-09T15:57:33.257Z,95.63
2023-01-09T16:00:56.592Z,93.15
2023-01-09T16:03:26.939Z,87.25
2023-01-09T16:06:30.831Z,89.00
2023-01-09T16:09:00.715Z,94.50
2023-01-09T16:11:35.356Z,99.50
2023-01-09T16:14:33.160Z,88.70
2023-01-09T16:17:17.049Z,109.63
2023-01-09T16:19:51.784Z,95.90
2023-01-09T16:22:34.209Z,89.00
2023-01-09T16:25:24.884Z,100.05
2023-01-09T16:28:26.980Z,87.07
2023-01-09T16:33:32.694Z,79.20
2023-01-09T16:36:03.645Z,82.68
2023-01-09T16:38:37.808Z,82.65
2023-01-09T16:41:31.318Z,91.45
2023-01-09T16:43:59.707Z,80.68
2023-01-09T16:46:28.915Z,83.88
2023-01-09T16:49:02.442Z,86.95
2023-01-09T16:51:34.534Z,80.90
2023-01-09T16:54:02.870Z,86.38
2023-01-09T16:56:31.693Z,86.75
2023-01-09T16:58:59.943Z,86.07
2023-01-09T17:01:29.233Z,82.63
2023-01-09T17:03:57.656Z,83.00
2023-01-09T17:06:32.361Z,91.93
2023-01-09T17:09:00.666Z,85.38
2023-01-09T17:11:32.636Z,94.82
2023-01-09T17:14:07.850Z,88.53
2023-01-09T17:16:36.903Z,91.43
2023-01-09T17:19:07.547Z,88.57
2023-01-09T17:21:41.157Z,90.15
2023-01-09T17:24:27.906Z,84.03
2023-01-09T17:27:15.605Z,90.18
2023-01-09T17:29:44.735Z,84.50
2023-01-09T17:32:20.252Z,86.28
2023-01-09T17:34:55.272Z,87.18
2023-01-09T17:37:23.878Z,89.40
2023-01-09T17:39:52.385Z,89.47
2023-01-09T17:42:23.951Z,89.38
2023-01-09T17:44:56.719Z,97.40
2023-01-09T17:47:28.885Z,87.53
2023-01-09T17:49:57.060Z,88.90
2023-01-09T17:52:28.729Z,88.95
2023-01-09T17:55:36.394Z,88.82
2023-01-09T18:01:27.621Z,73.97
2023-01-09T18:03:58.383Z,82.10
2023-01-09T18:06:26.687Z,80.55
2023-01-09T18:09:11.303Z,80.20
2023-01-09T18:11:47.752Z,90.55
2023-01-09T18:14:28.587Z,82.85
2023-01-09T18:17:03.358Z,79.68
2023-01-09T18:19:34.825Z,79.95
2023-01-09T18:22:06.063Z,89.50
2023-01-09T18:24:35.019Z,82.25
2023-01-09T18:27:05.357Z,85.40
2023-01-09T18:29:37.019Z,77.95
2023-01-09T18:32:32.332Z,80.60
2023-01-09T18:35:25.011Z,82.03
2023-01-09T18:37:56.575Z,80.80
2023-01-09T18:40:29.404Z,84.72
2023-01-09T18:43:00.889Z,80.32
2023-01-09T18:45:38.999Z,85.25
2023-01-09T18:48:08.013Z,89.15
2023-01-09T18:50:46.289Z,90.10
2023-01-09T18:53:20.376Z,92.90
2023-01-09T18:55:50.638Z,89.35
2023-01-09T18:58:18.965Z,87.97
2023-01-09T19:01:14.703Z,91.68
2023-01-09T19:04:05.602Z,94.20
2023-01-09T19:07:01.853Z,91.93
2023-01-09T19:09:33.621Z,87.90
2023-01-09T19:12:19.905Z,95.75
2023-01-09T19:15:13.584Z,83.80
2023-01-09T19:17:42.572Z,95.80
2023-01-09T19:20:17.240Z,95.50
2023-01-09T19:22:51.911Z,92.22
2023-01-09T19:25:20.300Z,88.25
2023-01-09T19:28:00.541Z,83.55
2023-01-09T19:30:53.503Z,84.72
2023-01-09T19:33:27.013Z,87.22
2023-01-09T19:37:02.732Z,96.43
2023-01-09T19:40:11.475Z,94.35
2023-01-09T19:43:40.496Z,84.75
2023-01-09T19:46:19.576Z,81.05
2023-01-09T19:48:51.209Z,85.45
2023-01-09T19:51:38.619Z,80.55
2023-01-09T19:54:19.912Z,83.65
2023-01-09T19:56:53.267Z,95.00
2023-01-09T19:59:40.096Z,87.32
2023-01-09T20:02:29.151Z,80.38
2023-01-09T20:05:13.283Z,81.38
2023-01-09T20:07:44.024Z,80.75
2023-01-09T20:10:19.728Z,87.65
2023-01-09T20:13:00.937Z,84.20
2023-01-09T20:15:44.815Z,79.72
2023-01-09T20:18:23.411Z,86.47
2023-01-09T20:20:59.540Z,81.72
2023-01-09T20:24:00.338Z,90.03
2023-01-09T20:26:32.872Z,80.38
2023-01-09T20:29:02.305Z,87.35
2023-01-09T20:32:24.408Z,87.40
2023-01-09T20:35:04.062Z,81.25
2023-01-09T20:37:39.506Z,83.45
2023-01-09T20:40:10.206Z,85.85
2023-01-09T20:43:00.589Z,77.90
2023-01-09T20:46:03.456Z,81.60
2023-01-09T20:48:58.372Z,86.22
2023-01-09T20:51:31.318Z,78.15
2023-01-09T20:53:59.970Z,72.60
2023-01-09T20:56:30.767Z,73.53
2023-01-09T20:59:00.794Z,74.03
2023-01-09T21:01:29.851Z,70.75
2023-01-09T21:03:58.990Z,86.72
2023-01-09T21:06:33.467Z,80.03
2023-01-09T21:09:02.734Z,68.43
2023-01-09T21:11:35.636Z,72.28
2023-01-09T21:14:31.996Z,78.40
2023-01-09T21:17:05.666Z,68.18
2023-01-09T21:19:34.078Z,73.47
2023-01-09T21:22:12.554Z,68.72
2023-01-09T21:24:44.252Z,67.05
2023-01-09T21:28:24.381Z,64.97
2023-01-09T21:30:58.622Z,69.22
2023-01-09T21:33:30.354Z,79.47
2023-01-09T21:36:03.677Z,73.28
2023-01-09T21:38:38.328Z,74.20
2023-01-09T21:41:50.167Z,79.00
2023-01-09T21:45:08.592Z,58.03
2023-01-09T21:51:50.487Z,59.30
2023-01-09T21:54:20.818Z,70.55
2023-01-09T21:57:14.447Z,69.72
2023-01-09T21:59:43.371Z,68.20
2023-01-09T22:02:16.903Z,69.05
2023-01-09T22:04:49.143Z,61.22
2023-01-09T22:07:42.342Z,64.40
2023-01-09T22:10:17.798Z,67.32
2023-01-09T22:13:10.656Z,68.75
2023-01-09T22:16:34.114Z,67.28
2023-01-09T22:19:04.938Z,68.72
2023-01-09T22:21:38.367Z,62.55
2023-01-09T22:24:28.335Z,65.70
2023-01-09T22:26:58.332Z,60.55
2023-01-09T22:29:26.836Z,63.05
2023-01-09T22:31:55.793Z,61.42
2023-01-09T22:34:24.112Z,63.22
2023-01-09T22:36:52.774Z,61.97
2023-01-09T22:39:21.411Z,58.13
2023-01-09T22:41:52.704Z,62.60
2023-01-09T22:44:53.633Z,65.03
2023-01-09T22:47:23.343Z,62.13
2023-01-09T22:49:53.356Z,62.53
2023-01-09T22:52:22.889Z,63.50
2023-01-09T22:54:51.191Z,59.92
2023-01-09T22:57:19.705Z,61.53
2023-01-09T22:59:47.956Z,59.17
2023-01-09T23:02:16.680Z,61.53
2023-01-09T23:04:46.782Z,55.90
2023-01-09T23:07:15.605Z,59.83
2023-01-09T23:09:44.015Z,56.05
2023-01-09T23:12:12.733Z,59.22
2023-01-09T23:14:41.240Z,66.50
2023-01-09T23:17:11.388Z,65.32
2023-01-09T23:19:40.737Z,62.67
2023-01-09T23:22:09.362Z,59.65
2023-01-09T23:24:37.901Z,64.95
2023-01-09T23:27:07.818Z,65.88
2023-01-09T23:29:38.655Z,68.55
2023-01-09T23:32:09.838Z,75.28
2023-01-09T23:34:38.446Z,66.75
2023-01-09T23:37:09.250Z,83.70
2023-01-09T23:39:37.724Z,144.38
2023-01-09T23:42:24.888Z,85.65
2023-01-09T23:44:53.162Z,62.95
2023-01-09T23:47:22.834Z,69.47
2023-01-09T23:49:51.222Z,67.95
2023-01-09T23:52:19.867Z,60.15
2023-01-09T23:54:48.094Z,67.28
2023-01-09T23:57:16.692Z,63.00
2023-01-09T23:59:45.229Z,60.17
